sensor_id;sensor_type;location;lat;lon;timestamp;P1;P2;P0
72918;PMS7003;61063;55.700;26.994;2022-07-23T00:00:56;7.7;6.9;5.5
72918;PMS7003;61063;55.700;26.994;2022-07-23T00:05:57;8.6;7.8;6.4
72918;PMS7003;61063;55.700;26.994;2022-07-23T00:10:57;8.4;7.1;5.5
72918;PMS7003;61063;55.700;26.994;2022-07-23T00:15:56;8;7.1;5.8
72918;PMS7003;61063;55.700;26.994;2022-07-23T00:20:57;8.5;7.4;6.1
72918;PMS7003;61063;55.700;26.994;2022-07-23T00:25:57;7.8;7.1;6
72918;PMS7003;61063;55.700;26.994;2022-07-23T00:30:56;8.3;7.9;6.7
72918;PMS7003;61063;55.700;26.994;2022-07-23T00:35:56;7.8;6.5;5.5
72918;PMS7003;61063;55.700;26.994;2022-07-23T00:40:57;8.6;7.1;5.7
72918;PMS7003;61063;55.700;26.994;2022-07-23T00:45:57;7.8;6.7;5.6
72918;PMS7003;61063;55.700;26.994;2022-07-23T00:50:57;8.8;7.2;5.9
72918;PMS7003;61063;55.700;26.994;2022-07-23T00:55:57;7.9;7;5.6
72918;PMS7003;61063;55.700;26.994;2022-07-23T01:00:56;7.9;7.3;6.2
72918;PMS7003;61063;55.700;26.994;2022-07-23T01:05:56;8.3;7;5.7
72918;PMS7003;61063;55.700;26.994;2022-07-23T01:10:56;7.6;6.9;5.8
72918;PMS7003;61063;55.700;26.994;2022-07-23T01:15:57;7.6;6.8;5.6
72918;PMS7003;61063;55.700;26.994;2022-07-23T01:20:56;7.7;7.1;5.7
72918;PMS7003;61063;55.700;26.994;2022-07-23T01:25:57;8.1;7.3;5.9
72918;PMS7003;61063;55.700;26.994;2022-07-23T01:30:57;7.8;6.8;5.9
72918;PMS7003;61063;55.700;26.994;2022-07-23T01:35:56;7.5;6.4;5.1
72918;PMS7003;61063;55.700;26.994;2022-07-23T01:40:57;7.6;6.9;5.4
72918;PMS7003;61063;55.700;26.994;2022-07-23T01:45:56;7.4;6;5
72918;PMS7003;61063;55.700;26.994;2022-07-23T01:50:57;6.5;6.1;5.2
72918;PMS7003;61063;55.700;26.994;2022-07-23T01:55:57;7.7;6.6;5.6
72918;PMS7003;61063;55.700;26.994;2022-07-23T02:00:57;6.4;5.3;4.3
72918;PMS7003;61063;55.700;26.994;2022-07-23T02:05:57;6.6;6;5
72918;PMS7003;61063;55.700;26.994;2022-07-23T02:10:56;7.1;6.5;5.3
72918;PMS7003;61063;55.700;26.994;2022-07-23T02:15:57;6.8;6.1;5.2
72918;PMS7003;61063;55.700;26.994;2022-07-23T02:20:56;8.1;6.2;5.2
72918;PMS7003;61063;55.700;26.994;2022-07-23T02:25:57;6.5;5.3;4.4
72918;PMS7003;61063;55.700;26.994;2022-07-23T02:30:57;7.7;6.7;5.5
72918;PMS7003;61063;55.700;26.994;2022-07-23T02:35:57;7.3;6.1;5.2
72918;PMS7003;61063;55.700;26.994;2022-07-23T02:40:57;6.4;5.4;4.4
72918;PMS7003;61063;55.700;26.994;2022-07-23T02:45:56;6.2;5.5;4.7
72918;PMS7003;61063;55.700;26.994;2022-07-23T02:50:57;6.6;6.1;5.1
72918;PMS7003;61063;55.700;26.994;2022-07-23T02:55:57;6.3;6;4.9
72918;PMS7003;61063;55.700;26.994;2022-07-23T03:00:56;6.4;5.6;4.8
72918;PMS7003;61063;55.700;26.994;2022-07-23T03:05:57;6.7;5.7;4.9
72918;PMS7003;61063;55.700;26.994;2022-07-23T03:10:57;7.3;6.2;5.3
72918;PMS7003;61063;55.700;26.994;2022-07-23T03:15:56;7;5.6;4.7
72918;PMS7003;61063;55.700;26.994;2022-07-23T03:20:56;6.1;5.3;4.5
72918;PMS7003;61063;55.700;26.994;2022-07-23T03:25:56;6.5;5.7;4.8
72918;PMS7003;61063;55.700;26.994;2022-07-23T03:30:57;6.9;5.8;4.8
72918;PMS7003;61063;55.700;26.994;2022-07-23T03:35:57;7;5.9;4.8
72918;PMS7003;61063;55.700;26.994;2022-07-23T03:40:56;7.1;5.7;4.9
72918;PMS7003;61063;55.700;26.994;2022-07-23T03:45:57;7.4;6.4;5.4
72918;PMS7003;61063;55.700;26.994;2022-07-23T03:50:57;7;5.4;4.7
72918;PMS7003;61063;55.700;26.994;2022-07-23T03:55:57;6.8;5.5;4.6
72918;PMS7003;61063;55.700;26.994;2022-07-23T04:00:57;7.8;6.3;5.1
72918;PMS7003;61063;55.700;26.994;2022-07-23T04:05:57;6.9;5.7;4.6
72918;PMS7003;61063;55.700;26.994;2022-07-23T04:10:57;7.5;6.4;5.6
72918;PMS7003;61063;55.700;26.994;2022-07-23T04:15:57;7.2;6.6;5.5
72918;PMS7003;61063;55.700;26.994;2022-07-23T04:20:57;7.6;6.8;5.8
72918;PMS7003;61063;55.700;26.994;2022-07-23T04:25:57;7.4;6.5;5.3
72918;PMS7003;61063;55.700;26.994;2022-07-23T04:30:57;6.8;6.5;5.2
72918;PMS7003;61063;55.700;26.994;2022-07-23T04:35:57;7.3;6.4;5.2
72918;PMS7003;61063;55.700;26.994;2022-07-23T04:40:56;7.9;6.9;5.4
72918;PMS7003;61063;55.700;26.994;2022-07-23T04:45:57;8.1;7.5;6.3
72918;PMS7003;61063;55.700;26.994;2022-07-23T04:50:57;9.6;7.8;6.3
72918;PMS7003;61063;55.700;26.994;2022-07-23T04:55:57;8.8;7.7;6.6
72918;PMS7003;61063;55.700;26.994;2022-07-23T05:00:57;8.6;8;6.4
72918;PMS7003;61063;55.700;26.994;2022-07-23T05:05:57;9.1;7.8;6.3
72918;PMS7003;61063;55.700;26.994;2022-07-23T05:10:57;9.3;8.5;6.8
72918;PMS7003;61063;55.700;26.994;2022-07-23T05:15:57;9.6;7.9;6.6
72918;PMS7003;61063;55.700;26.994;2022-07-23T05:20:57;10.1;8.9;7
72918;PMS7003;61063;55.700;26.994;2022-07-23T05:25:57;8.7;8.4;6.9
72918;PMS7003;61063;55.700;26.994;2022-07-23T05:30:57;9.5;8.6;7
72918;PMS7003;61063;55.700;26.994;2022-07-23T05:36:00;9;8.2;6.9
72918;PMS7003;61063;55.700;26.994;2022-07-23T05:40:57;9.1;8.2;6.7
72918;PMS7003;61063;55.700;26.994;2022-07-23T05:45:57;10;9.2;7.3
72918;PMS7003;61063;55.700;26.994;2022-07-23T05:50:57;10.3;9.1;7.5
72918;PMS7003;61063;55.700;26.994;2022-07-23T05:55:57;9.8;8.9;7.5
72918;PMS7003;61063;55.700;26.994;2022-07-23T06:00:57;10.1;9.3;7.2
72918;PMS7003;61063;55.700;26.994;2022-07-23T06:05:57;11.9;10;8.1
72918;PMS7003;61063;55.700;26.994;2022-07-23T06:10:57;10.3;9.5;8
72918;PMS7003;61063;55.700;26.994;2022-07-23T06:15:57;11.6;9.8;7.6
72918;PMS7003;61063;55.700;26.994;2022-07-23T06:20:57;12.4;10.7;8.2
72918;PMS7003;61063;55.700;26.994;2022-07-23T06:25:57;11;10;8.3
72918;PMS7003;61063;55.700;26.994;2022-07-23T06:30:57;11.6;10.1;8.2
72918;PMS7003;61063;55.700;26.994;2022-07-23T06:35:57;12.7;11.1;8.6
72918;PMS7003;61063;55.700;26.994;2022-07-23T06:40:57;11.1;10;8.5
72918;PMS7003;61063;55.700;26.994;2022-07-23T06:45:57;11.7;10.5;8.5
72918;PMS7003;61063;55.700;26.994;2022-07-23T06:50:56;12.5;11.2;8.9
72918;PMS7003;61063;55.700;26.994;2022-07-23T06:55:57;12.3;10.6;8.5
72918;PMS7003;61063;55.700;26.994;2022-07-23T07:00:57;12.5;11.5;9.2
72918;PMS7003;61063;55.700;26.994;2022-07-23T07:05:57;11.7;10.5;8.9
72918;PMS7003;61063;55.700;26.994;2022-07-23T07:10:57;12.9;11.8;9.4
72918;PMS7003;61063;55.700;26.994;2022-07-23T07:15:57;13.6;11.8;9.7
72918;PMS7003;61063;55.700;26.994;2022-07-23T07:20:57;13.1;11.9;9.2
72918;PMS7003;61063;55.700;26.994;2022-07-23T07:25:57;12.9;11.6;9.3
72918;PMS7003;61063;55.700;26.994;2022-07-23T07:30:57;12.8;11.5;9.4
72918;PMS7003;61063;55.700;26.994;2022-07-23T07:35:57;13.6;12.1;9.5
72918;PMS7003;61063;55.700;26.994;2022-07-23T07:40:57;13.1;11.7;9
72918;PMS7003;61063;55.700;26.994;2022-07-23T07:45:57;12.9;11.6;9.4
72918;PMS7003;61063;55.700;26.994;2022-07-23T07:50:57;13.7;12.8;10.2
72918;PMS7003;61063;55.700;26.994;2022-07-23T07:55:57;15.5;13.3;10.2
72918;PMS7003;61063;55.700;26.994;2022-07-23T08:00:57;15.7;13.4;10.4
72918;PMS7003;61063;55.700;26.994;2022-07-23T08:05:57;15.1;13.8;10.8
72918;PMS7003;61063;55.700;26.994;2022-07-23T08:10:57;16.3;14.8;11.7
72918;PMS7003;61063;55.700;26.994;2022-07-23T08:15:57;15.6;13.9;11.1
72918;PMS7003;61063;55.700;26.994;2022-07-23T08:20:57;15.3;13.4;10.9
72918;PMS7003;61063;55.700;26.994;2022-07-23T08:25:57;16.3;15;12.2
72918;PMS7003;61063;55.700;26.994;2022-07-23T08:30:57;16.6;14.2;11.1
72918;PMS7003;61063;55.700;26.994;2022-07-23T08:35:57;15;13.8;11.1
72918;PMS7003;61063;55.700;26.994;2022-07-23T08:40:57;14.5;13;10.4
72918;PMS7003;61063;55.700;26.994;2022-07-23T08:45:57;14.5;13.2;10.5
72918;PMS7003;61063;55.700;26.994;2022-07-23T08:50:58;16;14.7;11.5
72918;PMS7003;61063;55.700;26.994;2022-07-23T08:55:57;16;14.2;11.5
72918;PMS7003;61063;55.700;26.994;2022-07-23T09:00:57;15.4;14.2;11.4
72918;PMS7003;61063;55.700;26.994;2022-07-23T09:05:57;14.8;13.7;10.9
72918;PMS7003;61063;55.700;26.994;2022-07-23T09:10:57;14.7;13.2;10.4
72918;PMS7003;61063;55.700;26.994;2022-07-23T09:15:58;14.8;13.4;10.9
72918;PMS7003;61063;55.700;26.994;2022-07-23T09:21:14;14.6;13.3;10.7
72918;PMS7003;61063;55.700;26.994;2022-07-23T09:25:57;14;13.1;10.3
72918;PMS7003;61063;55.700;26.994;2022-07-23T09:30:57;15.2;13.8;11.1
72918;PMS7003;61063;55.700;26.994;2022-07-23T09:35:57;15.1;13.9;11.3
72918;PMS7003;61063;55.700;26.994;2022-07-23T09:41:12;15.3;13.8;11.5
72918;PMS7003;61063;55.700;26.994;2022-07-23T09:46:16;17.6;15.5;12
72918;PMS7003;61063;55.700;26.994;2022-07-23T09:51:01;16.9;15.1;12
72918;PMS7003;61063;55.700;26.994;2022-07-23T09:55:57;15.5;14;11.1
72918;PMS7003;61063;55.700;26.994;2022-07-23T10:00:57;16.7;14.3;11.2
72918;PMS7003;61063;55.700;26.994;2022-07-23T10:05:57;15.9;14.7;11.8
72918;PMS7003;61063;55.700;26.994;2022-07-23T10:10:57;16.2;14.2;11.3
72918;PMS7003;61063;55.700;26.994;2022-07-23T10:15:57;16.2;14.6;11.8
72918;PMS7003;61063;55.700;26.994;2022-07-23T10:20:57;16;14.3;11.4
72918;PMS7003;61063;55.700;26.994;2022-07-23T10:25:59;16.1;14.6;11.3
72918;PMS7003;61063;55.700;26.994;2022-07-23T10:31:19;16.5;13.9;11
72918;PMS7003;61063;55.700;26.994;2022-07-23T10:37:07;16.4;14.8;11.8
72918;PMS7003;61063;55.700;26.994;2022-07-23T10:40:59;17;15.1;12.1
72918;PMS7003;61063;55.700;26.994;2022-07-23T10:46:20;20.6;18.3;13.4
72918;PMS7003;61063;55.700;26.994;2022-07-23T10:51:13;18.6;16.4;12.9
72918;PMS7003;61063;55.700;26.994;2022-07-23T10:55:57;19;16.9;12.9
72918;PMS7003;61063;55.700;26.994;2022-07-23T11:00:57;16.6;14.7;11.9
72918;PMS7003;61063;55.700;26.994;2022-07-23T11:05:57;19.3;16.6;12.6
72918;PMS7003;61063;55.700;26.994;2022-07-23T11:11:08;18.4;15.9;11.7
72918;PMS7003;61063;55.700;26.994;2022-07-23T11:16:28;16.5;14.7;12.1
72918;PMS7003;61063;55.700;26.994;2022-07-23T11:20:57;17.3;16.1;12.6
72918;PMS7003;61063;55.700;26.994;2022-07-23T11:25:57;19.4;16.5;13
72918;PMS7003;61063;55.700;26.994;2022-07-23T11:30:57;20.7;18.9;13.8
72918;PMS7003;61063;55.700;26.994;2022-07-23T11:36:00;43.6;37;24
72918;PMS7003;61063;55.700;26.994;2022-07-23T11:40:57;96.2;80.4;46.2
72918;PMS7003;61063;55.700;26.994;2022-07-23T11:45:57;262.8;211.4;102.5
72918;PMS7003;61063;55.700;26.994;2022-07-23T11:50:57;117.6;98.4;55.6
72918;PMS7003;61063;55.700;26.994;2022-07-23T11:56:12;20.7;18.7;14.6
72918;PMS7003;61063;55.700;26.994;2022-07-23T12:00:57;18.4;17.4;14
72918;PMS7003;61063;55.700;26.994;2022-07-23T12:05:57;16.1;14.6;11.7
72918;PMS7003;61063;55.700;26.994;2022-07-23T12:10:57;14;12.8;10.3
72918;PMS7003;61063;55.700;26.994;2022-07-23T12:15:57;31.5;27.6;19.7
72918;PMS7003;61063;55.700;26.994;2022-07-23T12:20:57;14.2;13;10.8
72918;PMS7003;61063;55.700;26.994;2022-07-23T12:26:00;14.3;12.4;10.1
72918;PMS7003;61063;55.700;26.994;2022-07-23T12:30:57;16.1;14.5;11.7
72918;PMS7003;61063;55.700;26.994;2022-07-23T12:35:57;11.2;10.2;8.7
72918;PMS7003;61063;55.700;26.994;2022-07-23T12:40:57;12.2;10.8;8.7
72918;PMS7003;61063;55.700;26.994;2022-07-23T12:46:28;10.8;9.6;7.6
72918;PMS7003;61063;55.700;26.994;2022-07-23T12:50:59;11.3;10.7;8.9
72918;PMS7003;61063;55.700;26.994;2022-07-23T12:55:58;11.3;10.7;8.9
72918;PMS7003;61063;55.700;26.994;2022-07-23T13:00:58;11.3;10.7;8.9
72918;PMS7003;61063;55.700;26.994;2022-07-23T13:05:57;11.3;10.7;8.9
72918;PMS7003;61063;55.700;26.994;2022-07-23T13:10:57;11.3;10.7;8.9
72918;PMS7003;61063;55.700;26.994;2022-07-23T13:15:57;10.9;10;8.2
72918;PMS7003;61063;55.700;26.994;2022-07-23T13:20:57;19.8;16.5;12
72918;PMS7003;61063;55.700;26.994;2022-07-23T13:25:57;12.4;11.3;9.1
72918;PMS7003;61063;55.700;26.994;2022-07-23T13:30:57;12.9;10.9;8.9
72918;PMS7003;61063;55.700;26.994;2022-07-23T13:35:57;11.7;10.7;8.7
72918;PMS7003;61063;55.700;26.994;2022-07-23T13:40:57;12.5;10.6;8.4
72918;PMS7003;61063;55.700;26.994;2022-07-23T13:45:57;11.4;10.1;8
72918;PMS7003;61063;55.700;26.994;2022-07-23T13:50:57;12.8;10.6;8.6
72918;PMS7003;61063;55.700;26.994;2022-07-23T13:55:57;11;9.5;8
72918;PMS7003;61063;55.700;26.994;2022-07-23T14:00:57;11.9;10.5;8.6
72918;PMS7003;61063;55.700;26.994;2022-07-23T14:05:57;12.1;11.1;9.3
72918;PMS7003;61063;55.700;26.994;2022-07-23T14:10:57;12.5;11.1;8.9
72918;PMS7003;61063;55.700;26.994;2022-07-23T14:15:57;11.2;10.2;8.1
72918;PMS7003;61063;55.700;26.994;2022-07-23T14:20:57;11.9;10.9;8.7
72918;PMS7003;61063;55.700;26.994;2022-07-23T14:25:57;13.8;11.2;9.1
72918;PMS7003;61063;55.700;26.994;2022-07-23T14:30:57;12;10.9;8.7
72918;PMS7003;61063;55.700;26.994;2022-07-23T14:35:57;11.8;10.6;8.4
72918;PMS7003;61063;55.700;26.994;2022-07-23T14:40:57;12.6;11.3;9
72918;PMS7003;61063;55.700;26.994;2022-07-23T14:45:57;10.5;9.6;7.4
72918;PMS7003;61063;55.700;26.994;2022-07-23T14:50:57;12.6;11.1;9.1
72918;PMS7003;61063;55.700;26.994;2022-07-23T14:55:57;12.5;11.5;9.1
72918;PMS7003;61063;55.700;26.994;2022-07-23T15:00:57;12.6;10.9;8.3
72918;PMS7003;61063;55.700;26.994;2022-07-23T15:05:57;11.9;10;8.2
72918;PMS7003;61063;55.700;26.994;2022-07-23T15:10:57;11.9;10.8;8.7
72918;PMS7003;61063;55.700;26.994;2022-07-23T15:15:57;11.9;10.8;8.6
72918;PMS7003;61063;55.700;26.994;2022-07-23T15:20:57;12.4;11.3;8.9
72918;PMS7003;61063;55.700;26.994;2022-07-23T15:25:57;11.4;10.6;8.5
72918;PMS7003;61063;55.700;26.994;2022-07-23T15:30:57;14.1;12.9;10.4
72918;PMS7003;61063;55.700;26.994;2022-07-23T15:35:57;18.5;16.9;12.7
72918;PMS7003;61063;55.700;26.994;2022-07-23T15:40:57;13.7;12;9.8
72918;PMS7003;61063;55.700;26.994;2022-07-23T15:45:57;12.5;11.6;9.4
72918;PMS7003;61063;55.700;26.994;2022-07-23T15:50:57;13.9;12;9.6
72918;PMS7003;61063;55.700;26.994;2022-07-23T15:55:57;19.1;16.1;12.8
72918;PMS7003;61063;55.700;26.994;2022-07-23T16:00:57;14.8;12.9;9.8
72918;PMS7003;61063;55.700;26.994;2022-07-23T16:05:57;14.9;13.4;10.5
72918;PMS7003;61063;55.700;26.994;2022-07-23T16:10:57;14.9;13.2;10.4
72918;PMS7003;61063;55.700;26.994;2022-07-23T16:15:57;23.2;20.5;15.1
72918;PMS7003;61063;55.700;26.994;2022-07-23T16:20:57;27.2;23.1;17.5
72918;PMS7003;61063;55.700;26.994;2022-07-23T16:25:57;32;27.3;19
72918;PMS7003;61063;55.700;26.994;2022-07-23T16:30:57;25.8;22.3;15
72918;PMS7003;61063;55.700;26.994;2022-07-23T16:35:57;22.7;20.7;15.5
72918;PMS7003;61063;55.700;26.994;2022-07-23T16:40:57;22.3;20.5;15.4
72918;PMS7003;61063;55.700;26.994;2022-07-23T16:45:57;22.3;20.1;15.5
72918;PMS7003;61063;55.700;26.994;2022-07-23T16:50:57;21.2;19.7;15.3
72918;PMS7003;61063;55.700;26.994;2022-07-23T16:55:57;14.9;13.9;11.1
72918;PMS7003;61063;55.700;26.994;2022-07-23T17:00:57;16.4;14.1;11.1
72918;PMS7003;61063;55.700;26.994;2022-07-23T17:05:57;16.4;14.6;11.6
72918;PMS7003;61063;55.700;26.994;2022-07-23T17:10:57;28.2;24.7;18.5
72918;PMS7003;61063;55.700;26.994;2022-07-23T17:15:57;19;17.4;13.3
72918;PMS7003;61063;55.700;26.994;2022-07-23T17:20:57;27.6;23.5;17.7
72918;PMS7003;61063;55.700;26.994;2022-07-23T17:25:57;18.4;16.3;12.1
72918;PMS7003;61063;55.700;26.994;2022-07-23T17:30:57;16.4;14.7;11.7
72918;PMS7003;61063;55.700;26.994;2022-07-23T17:35:57;25.1;22.6;16.8
72918;PMS7003;61063;55.700;26.994;2022-07-23T17:40:57;14.3;13;10.4
72918;PMS7003;61063;55.700;26.994;2022-07-23T17:45:57;23.3;20.8;16.1
72918;PMS7003;61063;55.700;26.994;2022-07-23T17:50:57;19.2;17.6;13.4
72918;PMS7003;61063;55.700;26.994;2022-07-23T17:55:57;14.5;12.7;10.4
72918;PMS7003;61063;55.700;26.994;2022-07-23T18:00:57;15.7;13.8;11
72918;PMS7003;61063;55.700;26.994;2022-07-23T18:05:57;15;13.6;10.6
72918;PMS7003;61063;55.700;26.994;2022-07-23T18:10:57;15;13.2;10.1
72918;PMS7003;61063;55.700;26.994;2022-07-23T18:15:57;15.9;14;10.5
72918;PMS7003;61063;55.700;26.994;2022-07-23T18:20:57;15.1;13.3;10.4
72918;PMS7003;61063;55.700;26.994;2022-07-23T18:25:57;16.8;15.5;11.5
72918;PMS7003;61063;55.700;26.994;2022-07-23T18:30:57;16.3;14.2;10.9
72918;PMS7003;61063;55.700;26.994;2022-07-23T18:35:57;17.2;15.2;11.9
72918;PMS7003;61063;55.700;26.994;2022-07-23T18:40:57;22.2;19.8;14.4
72918;PMS7003;61063;55.700;26.994;2022-07-23T18:45:57;17.8;15.8;12.2
72918;PMS7003;61063;55.700;26.994;2022-07-23T18:50:57;14.9;13.4;10.2
72918;PMS7003;61063;55.700;26.994;2022-07-23T18:55:57;51.1;41.2;26.3
72918;PMS7003;61063;55.700;26.994;2022-07-23T19:00:57;30.1;24.6;17.4
72918;PMS7003;61063;55.700;26.994;2022-07-23T19:05:57;16;14.1;10.6
72918;PMS7003;61063;55.700;26.994;2022-07-23T19:10:57;16.7;14.9;11.7
72918;PMS7003;61063;55.700;26.994;2022-07-23T19:15:57;22.8;20.1;14.9
72918;PMS7003;61063;55.700;26.994;2022-07-23T19:20:57;18.9;16;12.4
72918;PMS7003;61063;55.700;26.994;2022-07-23T19:25:57;17.9;15.3;11.7
72918;PMS7003;61063;55.700;26.994;2022-07-23T19:30:57;16.1;15.2;11.6
72918;PMS7003;61063;55.700;26.994;2022-07-23T19:35:57;24.7;22.3;16.9
72918;PMS7003;61063;55.700;26.994;2022-07-23T19:40:57;20.3;17.7;13.3
72918;PMS7003;61063;55.700;26.994;2022-07-23T19:45:57;20.4;18.1;13.8
72918;PMS7003;61063;55.700;26.994;2022-07-23T19:50:57;23.3;20.4;16
72918;PMS7003;61063;55.700;26.994;2022-07-23T19:55:57;47.2;38.7;26.9
72918;PMS7003;61063;55.700;26.994;2022-07-23T20:00:57;43.6;36.2;25.4
72918;PMS7003;61063;55.700;26.994;2022-07-23T20:05:57;40.4;33.4;23.6
72918;PMS7003;61063;55.700;26.994;2022-07-23T20:10:57;22.5;20.2;15.4
72918;PMS7003;61063;55.700;26.994;2022-07-23T20:15:57;17;15.5;11.6
72918;PMS7003;61063;55.700;26.994;2022-07-23T20:20:57;30.7;26.5;19.6
72918;PMS7003;61063;55.700;26.994;2022-07-23T20:25:57;34.6;29.8;21.9
72918;PMS7003;61063;55.700;26.994;2022-07-23T20:30:57;14;12.4;9.5
72918;PMS7003;61063;55.700;26.994;2022-07-23T20:35:57;14.6;12.8;9.8
72918;PMS7003;61063;55.700;26.994;2022-07-23T20:40:57;14.4;13;9.8
72918;PMS7003;61063;55.700;26.994;2022-07-23T20:45:57;13.8;13.4;11
72918;PMS7003;61063;55.700;26.994;2022-07-23T20:50:57;13.8;13.4;11
72918;PMS7003;61063;55.700;26.994;2022-07-23T20:55:57;13.8;13.4;11
72918;PMS7003;61063;55.700;26.994;2022-07-23T21:00:57;13.8;13.4;11
72918;PMS7003;61063;55.700;26.994;2022-07-23T21:05:57;13.8;13.4;11
72918;PMS7003;61063;55.700;26.994;2022-07-23T21:10:57;13.8;13.4;11
72918;PMS7003;61063;55.700;26.994;2022-07-23T21:15:57;13.8;13.4;11
72918;PMS7003;61063;55.700;26.994;2022-07-23T21:20:57;13.8;13.4;11
72918;PMS7003;61063;55.700;26.994;2022-07-23T21:25:57;13.8;13.4;11
72918;PMS7003;61063;55.700;26.994;2022-07-23T21:30:57;12.5;11.4;8.8
72918;PMS7003;61063;55.700;26.994;2022-07-23T21:35:57;11.1;10.1;8
72918;PMS7003;61063;55.700;26.994;2022-07-23T21:40:57;8.8;7.7;5.9
72918;PMS7003;61063;55.700;26.994;2022-07-23T21:45:57;11;9.4;7.3
72918;PMS7003;61063;55.700;26.994;2022-07-23T21:50:57;10.5;9;7.2
72918;PMS7003;61063;55.700;26.994;2022-07-23T21:55:57;10.1;9;7.3
72918;PMS7003;61063;55.700;26.994;2022-07-23T22:00:57;11.6;9.9;7.9
72918;PMS7003;61063;55.700;26.994;2022-07-23T22:05:57;10.5;8.9;7.1
72918;PMS7003;61063;55.700;26.994;2022-07-23T22:10:57;10.2;9.2;7.2
72918;PMS7003;61063;55.700;26.994;2022-07-23T22:15:57;9.8;8;6.6
72918;PMS7003;61063;55.700;26.994;2022-07-23T22:20:57;10;8.5;6.6
72918;PMS7003;61063;55.700;26.994;2022-07-23T22:25:57;9.5;8.5;6.8
72918;PMS7003;61063;55.700;26.994;2022-07-23T22:30:57;9.9;8.5;6.7
72918;PMS7003;61063;55.700;26.994;2022-07-23T22:35:57;8.9;7.9;6.6
72918;PMS7003;61063;55.700;26.994;2022-07-23T22:40:57;9.6;8.3;6.5
72918;PMS7003;61063;55.700;26.994;2022-07-23T22:45:57;9.1;8.3;7
72918;PMS7003;61063;55.700;26.994;2022-07-23T22:50:57;9.8;8.3;6.8
72918;PMS7003;61063;55.700;26.994;2022-07-23T22:55:57;9.3;8.6;6.4
72918;PMS7003;61063;55.700;26.994;2022-07-23T23:00:57;9.1;8;6.3
72918;PMS7003;61063;55.700;26.994;2022-07-23T23:05:57;9.7;8.1;6.5
72918;PMS7003;61063;55.700;26.994;2022-07-23T23:10:57;9.1;7.7;6
72918;PMS7003;61063;55.700;26.994;2022-07-23T23:15:57;9.5;7.5;6.3
72918;PMS7003;61063;55.700;26.994;2022-07-23T23:20:57;9.3;8.3;6.5
72918;PMS7003;61063;55.700;26.994;2022-07-23T23:25:57;9.9;7.9;6.1
72918;PMS7003;61063;55.700;26.994;2022-07-23T23:30:57;8.7;7.6;6.2
72918;PMS7003;61063;55.700;26.994;2022-07-23T23:35:57;9.1;7.2;5.9
72918;PMS7003;61063;55.700;26.994;2022-07-23T23:40:57;9.1;7.7;6.4
72918;PMS7003;61063;55.700;26.994;2022-07-23T23:45:57;8.8;7.7;6.3
72918;PMS7003;61063;55.700;26.994;2022-07-23T23:50:57;9.2;7.5;5.8
72918;PMS7003;61063;55.700;26.994;2022-07-23T23:55:57;10;8.1;6.4
